Bandara Internasional Osaka, Jepang

08:18 AM JST on Agustus 27, 2016 (GMT +0900)
Toyonaka Shi | | Change Station

Elev 0 ft 34.79 °N, 135.46 °E | Updated 2 minutes ago

Mostly Cloudy
Mendung Merata
82.9 °F
Feels Like 87 °F
N
0.0
Angin Variable Angin from Arah Utara
Gusts 0.6 mph

Siang Ini
High -- | Low -- °F
--% Chance of Precip.
Yesterday
High -- | Low -- °F
Precip. -- Inch
Tekanan 29.71 Inch
Jarak Pandang 6.2 Mil
Awan Few 2000 ft
Mendung Merata 3500 ft
Mendung Merata 12000 ft
Ideks Panas 87 °F
Titik Embun 70 °F
Kelembaban 65%
Rainfall Not available.
Snow Depth Not available.
5:27 AM 6:31 PM
Waning Crescent, 30% visible
METAR RJOO 262300Z 33007KT 9999 FEW020 BKN035 BKN120 26/20 Q1006 RMK 1CU020 5CU035 6AC120 A2971
Tekanan 29.71 Inch
Jarak Pandang 6.2 Mil
Awan Few 2000 ft
Mendung Merata 3500 ft
Mendung Merata 12000 ft
Ideks Panas 87 °F
Titik Embun 70 °F
Kelembaban 65%
Rainfall Not available.
Snow Depth Not available.
5:27 AM 6:31 PM
Waning Crescent, 30% visible
METAR RJOO 262300Z 33007KT 9999 FEW020 BKN035 BKN120 26/20 Q1006 RMK 1CU020 5CU035 6AC120 A2971

10-Day Weather Forecast

No radar image for this location.
×

Almanac

Astronomi

Aug. 27, 2016 Rise Set
Actual Time
Civil Twilight
Nautical Twilight
Astronomical Twilight
Moon
Length Of Visible Light
Lama Satu Hari
Tomorrow will be .
, % of the Moon is Illuminated

Today's Extremes

Country Highs Country Lows

Community

WunderPhotos

Upload Photos

1,935,254 photos uploaded!

WunderBlog® & News

Nearby

Air Quality

  Air Quality AQ Index Pollutant
Not available.

Snow Depth

Station Depth Elevation

Earthquake Activity

City Distance Mag. Time & Date
Minimum magnitude displayed is 2.5.

Coastal Water Temperatures

Lokasi Temperatur

Stations

Nearby Weather Stations

Station Location Temp Angin Dingin Titik Embun Kelembaban Angin Precip. Elev Telah Diperbaharui Type